Terminal Aerodrome Forecast
Issued by NWS

Home | Current Version | Previous Version | Text Only | Print | Product List | Glossary On
Versions: 1 2 3 4 5 6 7 8 9 10 11 12 13 14 15 16 17 18 19 20 21 22 23 24 25 26 27 28 29
000
FTUS45 KBOU 210525
TAFBJC
TAF
KBJC 210525Z 2106/2206 VRB05KT P6SM SKC
     FM210800 30006KT P6SM SKC
     FM211500 VRB06KT P6SM FEW140 SCT200
     FM211900 08007KT P6SM SCT080 BKN140
     FM212300 14007KT P6SM SCT070 BKN120 PROB30 2123/2202 -SHRA
      SCT060 BKN080
     FM220200 30011KT P6SM SCT070 BKN150=

USA.gov is the U.S. government's official web portal to all federal, state and local government web resources and services.